Startpagina
METAR-TAF:

METAR-TAF

Vliegvelden :

Majuro, Majuro Atoll, Marshalleilanden

Marshall Islands International Airport

breedte: 07-04N, lengte: 171-17E, hoogte: 2 m

Actueel weer

Dit bericht is 2 uur en het 8 minuten geleden gemaakt, om 23:51 UTC
Wind 9 kt uit het noordnoordoosten
Temperatuur 30°C
Vochtigheid 79%
Druk 1012 hPa
Zicht: 24.1 km
Weinig wolken op 1500 ft
Verspreide wolken op 5000 ft
Gebroken wolken op 30000 ft

METAR: PKMJ 222351Z 03009KT 15SM FEW015 SCT050 BKN300 30/26 A2987 RMK LAST

Tijdstip: 13:59 (01:59 UTC)

Verwachting

Dit bericht is 2 uur en het 36 minuten geleden gemaakt, om 23:23 UTC
Verwachting geldig van 23 om 00 UTC tot 23 om 24 UTC
Wind 8 kt uit het oosten
Zicht: 10 km
Weinig wolken op 1500 ft
Verspreide wolken op 5000 ft
buien in de omgeving

TAF: PKMJ 222323Z 2300/2324 09008KT P6SM VCSH FEW015 SCT050

Waarnemingen en weersverwachtingen van meer dan 4000 vliegvelden (METAR en TAF).

De beschikbare stations zijn de gele en rode punten op de kaart.

Ga met uw muis naar het station om de naam te zien.

Klik dan om waarnemingen en weersverwachtingen te zien.

kaart wijzigen: klik op de groene knoppen met een zwart kruis om in te zoomen, op de groene knop met een streepje om uit te zoomen of op de groene pijlen voor aangrenzende kaarten.


METAR-TAF: